Gheens, Louisiana
Current Conditions -  °F | °C
As of 11:55 PM on Wednesday 22 Oct 2014 (Local Time) from KHUM Reporting Station
Clear Clear  
Wind Chill: 57°   Ceiling: Unl
Heat Index: 57°   Visibility: 7mi
Dew Point: 55°   Wind: 3mph
Humidity: 94%   Direction: 30°NNE
Pressure: 30.07"   Gusts: NA
Location:  29.68°N, 90.46°W
Report Text: KHUM 230455Z AUTO 03003KT 7SM CLR 14/13 A3007 RMK AO2 T01370127
Loading
Personal Weather Stations






























Interactive Weather Map
Tropical Storm Tracking
New forecast layout! Learn more

10-Day Weather Forecast

Advertisements
Track Severe Weather on mobile